createdAt,value
2022-11-26T00:01:21.520Z,5.96
2022-11-26T00:04:23.285Z,6.10
2022-11-26T00:07:29.746Z,6.13
2022-11-26T00:10:35.530Z,6.25
2022-11-26T00:13:37.148Z,6.39
2022-11-26T00:16:38.928Z,6.60
2022-11-26T00:19:41.565Z,6.55
2022-11-26T00:22:46.686Z,6.60
2022-11-26T00:25:51.023Z,6.57
2022-11-26T00:28:55.227Z,6.54
2022-11-26T00:31:56.971Z,6.59
2022-11-26T00:34:58.617Z,6.59
2022-11-26T00:38:02.337Z,6.57
2022-11-26T00:41:04.103Z,6.53
2022-11-26T00:44:16.634Z,6.53
2022-11-26T00:47:18.364Z,6.55
2022-11-26T00:50:22.830Z,6.58
2022-11-26T00:53:26.243Z,6.68
2022-11-26T00:56:31.624Z,6.63
2022-11-26T00:59:35.416Z,6.63
2022-11-26T01:02:37.112Z,6.60
2022-11-26T01:05:38.885Z,6.57
2022-11-26T01:08:42.370Z,6.62
2022-11-26T01:11:44.117Z,6.77
2022-11-26T01:14:45.804Z,6.92
2022-11-26T01:17:47.589Z,6.90
2022-11-26T01:20:49.447Z,6.91
2022-11-26T01:23:52.728Z,6.89
2022-11-26T01:26:54.367Z,6.86
2022-11-26T01:29:55.988Z,6.80
2022-11-26T01:32:57.931Z,6.84
2022-11-26T01:35:59.505Z,6.79
2022-11-26T01:39:06.167Z,6.87
2022-11-26T01:42:20.959Z,6.82
2022-11-26T01:45:23.724Z,6.76
2022-11-26T01:48:29.919Z,6.75
2022-11-26T01:51:31.625Z,6.68
2022-11-26T01:54:38.212Z,6.71
2022-11-26T01:57:40.006Z,6.67
2022-11-26T02:00:42.060Z,6.78
2022-11-26T02:03:49.835Z,6.78
2022-11-26T02:06:53.642Z,6.76
2022-11-26T02:09:56.661Z,6.79
2022-11-26T02:12:58.488Z,6.80
2022-11-26T02:16:07.590Z,6.85
2022-11-26T02:19:32.283Z,6.87
2022-11-26T02:23:10.857Z,6.97
2022-11-26T02:26:52.203Z,7.04
2022-11-26T02:30:03.082Z,7.10
2022-11-26T02:33:09.292Z,7.13
2022-11-26T02:36:15.246Z,7.16
2022-11-26T02:39:19.325Z,7.15
2022-11-26T02:42:25.751Z,7.12
2022-11-26T02:45:31.289Z,7.10
2022-11-26T02:48:36.654Z,7.09
2022-11-26T02:51:40.122Z,7.08
2022-11-26T02:54:43.652Z,7.03
2022-11-26T02:57:48.299Z,7.09
2022-11-26T03:00:53.069Z,7.15
2022-11-26T03:03:59.003Z,7.14
2022-11-26T03:07:03.130Z,7.15
2022-11-26T03:10:06.392Z,7.14
2022-11-26T03:13:08.054Z,7.17
2022-11-26T03:16:11.210Z,7.09
2022-11-26T03:19:12.890Z,7.04
2022-11-26T03:22:15.480Z,7.04
2022-11-26T03:25:17.212Z,7.06
2022-11-26T03:28:18.874Z,7.07
2022-11-26T03:31:22.002Z,7.04
2022-11-26T03:34:23.839Z,7.02
2022-11-26T03:37:25.557Z,7.01
2022-11-26T03:40:27.237Z,7.05
2022-11-26T03:43:30.236Z,7.09
2022-11-26T03:46:33.369Z,7.15
2022-11-26T03:49:34.963Z,7.14
2022-11-26T03:52:36.659Z,7.16
2022-11-26T03:55:38.313Z,7.15
2022-11-26T03:58:39.969Z,7.19
2022-11-26T04:01:43.097Z,7.23
2022-11-26T04:04:44.913Z,7.22
2022-11-26T04:07:46.594Z,7.15
2022-11-26T04:10:48.292Z,7.10
2022-11-26T04:13:49.927Z,7.06
2022-11-26T04:16:53.058Z,7.02
2022-11-26T04:19:54.768Z,6.98
2022-11-26T04:22:56.400Z,6.91
2022-11-26T04:25:58.045Z,6.88
2022-11-26T04:28:59.737Z,6.70
2022-11-26T04:32:03.309Z,6.56
2022-11-26T04:35:06.431Z,6.36
2022-11-26T04:38:08.075Z,6.33
2022-11-26T04:41:09.760Z,6.23
2022-11-26T04:44:11.383Z,6.14
2022-11-26T04:47:14.350Z,6.13
2022-11-26T04:50:15.999Z,6.05
2022-11-26T04:53:21.690Z,5.97
2022-11-26T04:56:23.493Z,5.86
2022-11-26T04:59:25.338Z,5.74
2022-11-26T05:02:28.387Z,5.58
2022-11-26T05:05:30.097Z,5.45
2022-11-26T05:08:31.707Z,5.30
2022-11-26T05:11:33.341Z,5.26
2022-11-26T05:14:35.100Z,5.28
2022-11-26T05:17:38.224Z,5.23
2022-11-26T05:20:39.857Z,5.12
2022-11-26T05:23:41.549Z,4.94
2022-11-26T05:26:43.187Z,4.96
2022-11-26T05:29:44.797Z,4.86
2022-11-26T05:32:47.864Z,4.66
2022-11-26T05:35:49.566Z,4.66
2022-11-26T05:38:51.440Z,4.76
2022-11-26T05:41:53.155Z,4.71
2022-11-26T05:44:54.793Z,4.64
2022-11-26T05:47:57.868Z,4.48
2022-11-26T05:51:00.173Z,4.61
2022-11-26T05:54:01.937Z,4.48
2022-11-26T05:57:03.660Z,4.44
2022-11-26T06:00:06.920Z,4.40
2022-11-26T06:03:19.641Z,4.37
2022-11-26T06:06:21.818Z,4.33
2022-11-26T06:09:23.521Z,4.22
2022-11-26T06:12:25.168Z,4.18
2022-11-26T06:15:26.764Z,4.06
2022-11-26T06:18:29.784Z,4.09
2022-11-26T06:21:31.454Z,3.99
2022-11-26T06:24:33.276Z,3.95
2022-11-26T06:27:36.097Z,3.93
2022-11-26T06:30:37.739Z,3.85
2022-11-26T06:33:40.785Z,3.80
2022-11-26T06:36:42.725Z,3.68
2022-11-26T06:39:44.407Z,3.72
2022-11-26T06:42:49.538Z,3.72
2022-11-26T06:45:51.186Z,3.83
2022-11-26T06:48:54.493Z,3.78
2022-11-26T06:51:56.173Z,3.71
2022-11-26T06:54:57.766Z,3.62
2022-11-26T06:57:59.622Z,3.63
2022-11-26T07:01:08.052Z,3.60
2022-11-26T07:04:12.294Z,3.64
2022-11-26T07:07:13.907Z,3.58
2022-11-26T07:10:16.019Z,3.65
2022-11-26T07:13:17.686Z,3.80
2022-11-26T07:16:19.465Z,4.05
2022-11-26T07:19:22.551Z,4.21
2022-11-26T07:22:24.257Z,4.16
2022-11-26T07:25:25.895Z,4.17
2022-11-26T07:28:28.642Z,4.17
2022-11-26T07:31:30.331Z,4.31
2022-11-26T07:34:33.654Z,4.44
2022-11-26T07:37:35.508Z,4.39
2022-11-26T07:40:37.207Z,4.35
2022-11-26T07:43:40.356Z,4.29
2022-11-26T07:46:42.103Z,4.18
2022-11-26T07:49:45.237Z,4.16
2022-11-26T07:52:47.051Z,4.15
2022-11-26T07:55:48.743Z,4.26
2022-11-26T07:58:50.762Z,4.19
2022-11-26T08:01:52.816Z,4.24
2022-11-26T08:04:55.859Z,4.18
2022-11-26T08:07:57.538Z,4.18
2022-11-26T08:10:59.211Z,4.24
2022-11-26T08:14:03.218Z,4.35
2022-11-26T08:17:04.854Z,4.35
2022-11-26T08:20:08.919Z,4.50
2022-11-26T08:23:10.658Z,4.50
2022-11-26T08:26:23.901Z,4.71
2022-11-26T08:29:29.526Z,4.70
2022-11-26T08:32:31.245Z,4.77
2022-11-26T08:36:04.869Z,4.86
2022-11-26T08:38:58.550Z,4.98
2022-11-26T08:42:00.188Z,5.11
2022-11-26T08:45:01.998Z,5.24
2022-11-26T08:48:03.815Z,5.31
2022-11-26T08:51:09.496Z,5.34
2022-11-26T08:54:11.150Z,5.58
2022-11-26T08:57:12.830Z,5.58
2022-11-26T09:00:15.426Z,5.72
2022-11-26T09:03:17.281Z,5.83
2022-11-26T09:06:22.143Z,6.02
2022-11-26T09:09:23.827Z,6.16
2022-11-26T09:12:25.561Z,6.36
2022-11-26T09:15:27.221Z,6.54
2022-11-26T09:18:28.841Z,6.61
2022-11-26T09:21:32.663Z,6.73
2022-11-26T09:24:34.388Z,6.80
2022-11-26T09:27:36.097Z,6.86
2022-11-26T09:30:37.747Z,6.97
2022-11-26T09:33:39.486Z,7.16
2022-11-26T09:36:42.488Z,7.30
2022-11-26T09:39:44.403Z,7.32
2022-11-26T09:42:59.227Z,7.41
2022-11-26T09:46:01.447Z,7.54
2022-11-26T09:49:05.478Z,7.50
2022-11-26T09:52:10.433Z,7.46
2022-11-26T09:55:16.968Z,7.53
2022-11-26T09:58:26.956Z,7.56
2022-11-26T10:01:32.019Z,7.42
2022-11-26T10:04:37.445Z,7.29
2022-11-26T10:07:53.771Z,6.78
2022-11-26T10:11:03.588Z,6.70
2022-11-26T10:14:18.518Z,6.61
2022-11-26T10:17:29.887Z,6.83
2022-11-26T10:20:57.629Z,7.01
2022-11-26T10:24:04.361Z,7.01
2022-11-26T10:27:13.117Z,7.13
2022-11-26T10:30:19.628Z,7.12
2022-11-26T10:33:21.369Z,7.14
2022-11-26T10:36:28.739Z,7.24
2022-11-26T10:39:31.978Z,7.08
2022-11-26T10:42:42.154Z,7.27
2022-11-26T10:45:48.165Z,6.78
2022-11-26T10:48:50.101Z,6.65
2022-11-26T10:51:54.796Z,6.96
2022-11-26T10:55:22.568Z,7.10
2022-11-26T10:58:26.893Z,7.03
2022-11-26T11:01:35.666Z,7.07
2022-11-26T11:04:40.659Z,6.88
2022-11-26T11:07:44.011Z,6.88
2022-11-26T11:10:56.097Z,6.97
2022-11-26T11:13:58.492Z,6.76
2022-11-26T11:17:00.318Z,6.81
2022-11-26T11:20:23.564Z,6.46
2022-11-26T11:23:46.120Z,6.62
2022-11-26T11:26:55.415Z,6.67
2022-11-26T11:30:00.849Z,6.54
2022-11-26T11:33:20.613Z,6.73
2022-11-26T11:36:27.797Z,6.36
2022-11-26T11:39:30.755Z,6.22
2022-11-26T11:42:33.831Z,6.17
2022-11-26T11:45:43.592Z,6.19
2022-11-26T11:48:58.551Z,6.36
2022-11-26T11:52:15.890Z,6.54
2022-11-26T11:55:25.657Z,6.49
2022-11-26T11:58:42.853Z,6.50
2022-11-26T12:02:00.403Z,6.63
2022-11-26T12:05:26.944Z,6.50
2022-11-26T12:08:38.058Z,6.54
2022-11-26T12:11:50.316Z,6.65
2022-11-26T12:14:59.240Z,6.69
2022-11-26T12:18:05.853Z,6.67
2022-11-26T12:21:10.132Z,6.67
2022-11-26T12:24:15.322Z,6.76
2022-11-26T12:27:27.741Z,6.82
2022-11-26T12:30:43.720Z,6.91
2022-11-26T12:34:09.954Z,7.06
2022-11-26T12:37:19.393Z,7.16
2022-11-26T12:40:31.709Z,7.10
2022-11-26T12:43:46.488Z,7.04
2022-11-26T12:46:57.323Z,6.83
2022-11-26T12:50:09.277Z,6.93
2022-11-26T12:53:18.905Z,6.97
2022-11-26T12:56:26.306Z,6.99
2022-11-26T12:59:33.379Z,7.11
2022-11-26T13:02:40.213Z,7.15
2022-11-26T13:05:55.401Z,7.10
2022-11-26T13:09:07.725Z,6.97
2022-11-26T13:12:15.399Z,7.00
2022-11-26T13:15:23.962Z,6.90
2022-11-26T13:18:34.012Z,6.99
2022-11-26T13:21:51.983Z,7.12
2022-11-26T13:25:08.823Z,7.05
2022-11-26T13:28:20.199Z,6.96
2022-11-26T13:31:42.151Z,7.00
2022-11-26T13:35:03.553Z,7.02
2022-11-26T13:38:19.623Z,6.96
2022-11-26T13:41:38.953Z,7.01
2022-11-26T13:45:08.728Z,6.99
2022-11-26T13:48:15.621Z,7.10
2022-11-26T13:51:24.542Z,7.03
2022-11-26T13:54:29.901Z,7.05
2022-11-26T13:57:40.749Z,7.13
2022-11-26T14:00:43.432Z,7.09
2022-11-26T14:03:47.031Z,7.05
2022-11-26T14:07:20.193Z,7.14
2022-11-26T14:10:42.372Z,7.00
2022-11-26T14:13:44.004Z,7.02
2022-11-26T14:17:17.608Z,7.02
2022-11-26T14:20:19.294Z,7.06
2022-11-26T14:23:43.636Z,7.06
2022-11-26T14:26:45.313Z,7.12
2022-11-26T14:29:53.841Z,7.12
2022-11-26T14:33:11.885Z,7.07
2022-11-26T14:36:21.395Z,7.12
2022-11-26T14:39:25.518Z,7.08
2022-11-26T14:42:28.225Z,7.08
2022-11-26T14:45:30.015Z,7.11
2022-11-26T14:48:35.284Z,7.12
2022-11-26T14:51:36.904Z,7.10
2022-11-26T14:54:40.988Z,7.19
2022-11-26T14:57:46.437Z,7.22
2022-11-26T15:01:03.018Z,7.19
2022-11-26T15:04:06.655Z,7.17
2022-11-26T15:07:23.661Z,7.18
2022-11-26T15:10:30.336Z,7.20
2022-11-26T15:13:36.695Z,7.13
2022-11-26T15:16:39.654Z,7.15
2022-11-26T15:19:42.472Z,7.10
2022-11-26T15:22:49.908Z,7.15
2022-11-26T15:25:53.036Z,7.13
2022-11-26T15:28:54.797Z,7.14
2022-11-26T15:31:56.578Z,7.16
2022-11-26T15:35:01.975Z,7.24
2022-11-26T15:38:07.785Z,7.19
2022-11-26T15:41:17.738Z,7.16
2022-11-26T15:44:22.227Z,7.18
2022-11-26T15:47:26.990Z,7.18
2022-11-26T15:50:31.275Z,7.17
2022-11-26T15:53:35.778Z,7.10
2022-11-26T15:56:39.185Z,7.12
2022-11-26T15:59:44.131Z,7.04
2022-11-26T16:02:45.942Z,7.07
2022-11-26T16:05:54.200Z,7.08
2022-11-26T16:09:02.361Z,7.05
2022-11-26T16:12:05.953Z,7.05
2022-11-26T16:15:18.678Z,7.06
2022-11-26T16:18:25.045Z,6.99
2022-11-26T16:21:28.953Z,6.93
2022-11-26T16:24:34.490Z,6.94
2022-11-26T16:27:37.551Z,6.99
2022-11-26T16:30:41.392Z,6.95
2022-11-26T16:33:43.690Z,6.91
2022-11-26T16:36:45.456Z,6.95
2022-11-26T16:39:47.550Z,6.87
2022-11-26T16:42:50.939Z,6.88
2022-11-26T16:45:54.984Z,6.95
2022-11-26T16:48:56.795Z,7.08
2022-11-26T16:51:58.556Z,7.14
2022-11-26T16:55:00.156Z,7.10
2022-11-26T16:58:05.523Z,7.09
2022-11-26T17:01:07.168Z,7.00
2022-11-26T17:04:09.521Z,7.04
2022-11-26T17:07:13.429Z,7.00
2022-11-26T17:10:17.308Z,6.97
2022-11-26T17:13:20.621Z,6.95
2022-11-26T17:16:23.759Z,7.09
2022-11-26T17:19:25.582Z,7.01
2022-11-26T17:22:29.758Z,6.98
2022-11-26T17:25:31.829Z,7.01
2022-11-26T17:28:35.964Z,6.94
2022-11-26T17:31:37.622Z,6.91
2022-11-26T17:34:39.624Z,6.88
2022-11-26T17:37:41.444Z,6.93
2022-11-26T17:40:43.958Z,6.87
2022-11-26T17:43:47.041Z,6.89
2022-11-26T17:47:15.250Z,6.84
2022-11-26T17:50:17.529Z,6.83
2022-11-26T17:53:19.209Z,6.99
2022-11-26T17:56:22.774Z,6.86
2022-11-26T17:59:25.752Z,6.83
2022-11-26T18:02:27.430Z,6.83
2022-11-26T18:05:29.103Z,6.78
2022-11-26T18:08:30.804Z,6.83
2022-11-26T18:11:44.840Z,6.94
2022-11-26T18:14:48.116Z,6.96
2022-11-26T18:17:51.365Z,6.98
2022-11-26T18:20:53.306Z,6.91
2022-11-26T18:23:54.988Z,6.95
2022-11-26T18:26:56.945Z,6.89
2022-11-26T18:30:00.321Z,6.93
2022-11-26T18:33:02.214Z,6.86
2022-11-26T18:36:04.396Z,6.79
2022-11-26T18:39:06.382Z,6.87
2022-11-26T18:45:32.487Z,6.82
2022-11-26T18:48:35.002Z,6.79
2022-11-26T18:51:36.686Z,6.76
2022-11-26T18:54:38.678Z,6.85
2022-11-26T18:57:40.350Z,6.89
2022-11-26T19:00:43.487Z,6.83
2022-11-26T19:03:45.163Z,6.78
2022-11-26T19:06:46.882Z,6.80
2022-11-26T19:09:48.800Z,6.74
2022-11-26T19:12:50.697Z,6.68
2022-11-26T19:15:53.746Z,6.64
2022-11-26T19:18:55.703Z,6.62
2022-11-26T19:22:00.954Z,6.61
2022-11-26T19:25:03.388Z,6.64
2022-11-26T19:28:05.355Z,6.64
2022-11-26T19:31:11.087Z,6.68
2022-11-26T19:34:14.346Z,6.70
2022-11-26T19:37:15.987Z,6.81
2022-11-26T19:40:17.910Z,6.87
2022-11-26T19:43:19.557Z,6.99
2022-11-26T19:46:24.582Z,6.92
2022-11-26T19:49:28.006Z,6.97
2022-11-26T19:52:29.817Z,6.95
2022-11-26T19:55:31.470Z,6.98
2022-11-26T19:58:34.907Z,6.99
2022-11-26T20:01:38.107Z,6.89
2022-11-26T20:04:40.083Z,6.90
2022-11-26T20:07:41.779Z,6.84
2022-11-26T20:10:49.542Z,6.86
2022-11-26T20:13:51.816Z,6.89
2022-11-26T20:17:00.556Z,6.87
2022-11-26T20:20:03.747Z,6.87
2022-11-26T20:23:05.720Z,6.91
2022-11-26T20:26:14.784Z,6.97
2022-11-26T20:29:18.222Z,6.87
2022-11-26T20:32:21.263Z,6.80
2022-11-26T20:35:23.418Z,6.70
2022-11-26T20:38:25.063Z,6.75
2022-11-26T20:41:27.820Z,6.73
2022-11-26T20:44:29.466Z,6.66
2022-11-26T20:47:32.534Z,6.67
2022-11-26T20:50:34.713Z,6.72
2022-11-26T20:53:38.557Z,6.75
2022-11-26T20:56:40.413Z,6.78
2022-11-26T20:59:42.252Z,6.80
2022-11-26T21:02:46.690Z,6.68
2022-11-26T21:05:48.684Z,6.72
2022-11-26T21:08:50.549Z,6.72
2022-11-26T21:11:52.628Z,6.78
2022-11-26T21:14:54.453Z,6.70
2022-11-26T21:17:57.549Z,6.70
2022-11-26T21:20:59.968Z,6.69
2022-11-26T21:24:04.579Z,6.67
2022-11-26T21:27:06.321Z,6.68
2022-11-26T21:30:08.999Z,6.65
2022-11-26T21:33:12.364Z,6.53
2022-11-26T21:36:15.851Z,6.62
2022-11-26T21:39:17.560Z,6.66
2022-11-26T21:42:19.464Z,6.68
2022-11-26T21:45:22.492Z,6.36
2022-11-26T21:48:25.665Z,6.15
2022-11-26T21:51:29.654Z,6.01
2022-11-26T21:54:31.738Z,5.75
2022-11-26T21:57:34.573Z,5.63
2022-11-26T22:00:36.760Z,5.56
2022-11-26T22:03:41.239Z,5.43
2022-11-26T22:06:44.170Z,5.49
2022-11-26T22:09:46.067Z,5.52
2022-11-26T22:12:47.800Z,5.65
2022-11-26T22:15:49.619Z,5.75
2022-11-26T22:18:53.389Z,5.94
2022-11-26T22:21:55.292Z,5.90
2022-11-26T22:24:57.031Z,5.80
2022-11-26T22:27:58.705Z,5.68
2022-11-26T22:31:08.215Z,5.68
2022-11-26T22:34:12.720Z,5.49
2022-11-26T22:37:14.555Z,5.43
2022-11-26T22:40:16.367Z,5.34
2022-11-26T22:43:17.991Z,5.37
2022-11-26T22:46:21.661Z,5.38
2022-11-26T22:49:24.774Z,5.32
2022-11-26T22:52:26.410Z,5.16
2022-11-26T22:55:29.143Z,5.08
2022-11-26T22:58:32.827Z,5.04
2022-11-26T23:01:36.691Z,5.07
2022-11-26T23:04:39.825Z,5.04
2022-11-26T23:07:41.504Z,5.00
2022-11-26T23:10:44.066Z,4.98
2022-11-26T23:13:47.485Z,4.99
2022-11-26T23:16:49.539Z,4.95
2022-11-26T23:19:52.608Z,4.91
2022-11-26T23:22:54.299Z,4.85
2022-11-26T23:25:55.978Z,4.83
2022-11-26T23:28:59.368Z,4.95
2022-11-26T23:32:01.194Z,4.95
2022-11-26T23:35:04.670Z,4.96
2022-11-26T23:38:06.562Z,5.08
2022-11-26T23:41:09.218Z,5.02
2022-11-26T23:44:10.857Z,4.87
2022-11-26T23:47:12.488Z,4.92
2022-11-26T23:50:15.557Z,4.76
2022-11-26T23:53:17.213Z,5.07
2022-11-26T23:56:20.868Z,5.08
2022-11-26T23:59:22.487Z,5.08
